sensor_id;sensor_type;location;lat;lon;timestamp;P1;durP1;ratioP1;P2;durP2;ratioP2
8466;SDS011;4270;48.148;11.648;2023-03-05T00:01:29;34.60;;;17.73;;
8466;SDS011;4270;48.148;11.648;2023-03-05T00:03:57;34.20;;;17.00;;
8466;SDS011;4270;48.148;11.648;2023-03-05T00:06:24;30.73;;;15.87;;
8466;SDS011;4270;48.148;11.648;2023-03-05T00:08:50;35.80;;;17.37;;
8466;SDS011;4270;48.148;11.648;2023-03-05T00:11:17;35.10;;;17.47;;
8466;SDS011;4270;48.148;11.648;2023-03-05T00:13:42;36.90;;;17.60;;
8466;SDS011;4270;48.148;11.648;2023-03-05T00:16:09;36.73;;;17.10;;
8466;SDS011;4270;48.148;11.648;2023-03-05T00:18:34;41.80;;;17.97;;
8466;SDS011;4270;48.148;11.648;2023-03-05T00:20:59;36.83;;;17.40;;
8466;SDS011;4270;48.148;11.648;2023-03-05T00:23:25;32.17;;;16.60;;
8466;SDS011;4270;48.148;11.648;2023-03-05T00:25:50;29.60;;;15.90;;
8466;SDS011;4270;48.148;11.648;2023-03-05T00:28:15;38.83;;;15.57;;
8466;SDS011;4270;48.148;11.648;2023-03-05T00:30:41;30.87;;;15.33;;
8466;SDS011;4270;48.148;11.648;2023-03-05T00:33:06;32.27;;;14.80;;
8466;SDS011;4270;48.148;11.648;2023-03-05T00:35:37;31.33;;;16.07;;
8466;SDS011;4270;48.148;11.648;2023-03-05T00:38:02;30.63;;;15.93;;
8466;SDS011;4270;48.148;11.648;2023-03-05T00:40:27;30.70;;;14.93;;
8466;SDS011;4270;48.148;11.648;2023-03-05T00:42:52;29.57;;;15.83;;
8466;SDS011;4270;48.148;11.648;2023-03-05T00:45:18;33.10;;;14.77;;
8466;SDS011;4270;48.148;11.648;2023-03-05T00:47:43;33.27;;;16.47;;
8466;SDS011;4270;48.148;11.648;2023-03-05T00:50:08;29.10;;;15.57;;
8466;SDS011;4270;48.148;11.648;2023-03-05T00:52:34;28.90;;;14.40;;
8466;SDS011;4270;48.148;11.648;2023-03-05T00:54:59;35.60;;;15.97;;
8466;SDS011;4270;48.148;11.648;2023-03-05T00:57:24;30.63;;;15.40;;
8466;SDS011;4270;48.148;11.648;2023-03-05T00:59:49;28.97;;;15.10;;
8466;SDS011;4270;48.148;11.648;2023-03-05T01:02:14;33.87;;;15.47;;
8466;SDS011;4270;48.148;11.648;2023-03-05T01:04:39;33.73;;;17.00;;
8466;SDS011;4270;48.148;11.648;2023-03-05T01:07:05;34.27;;;16.00;;
8466;SDS011;4270;48.148;11.648;2023-03-05T01:09:30;29.23;;;15.67;;
8466;SDS011;4270;48.148;11.648;2023-03-05T01:11:55;33.70;;;15.90;;
8466;SDS011;4270;48.148;11.648;2023-03-05T01:14:21;34.23;;;16.00;;
8466;SDS011;4270;48.148;11.648;2023-03-05T01:16:46;31.63;;;15.67;;
8466;SDS011;4270;48.148;11.648;2023-03-05T01:19:13;35.53;;;16.10;;
8466;SDS011;4270;48.148;11.648;2023-03-05T01:21:38;31.80;;;15.90;;
8466;SDS011;4270;48.148;11.648;2023-03-05T01:24:03;33.13;;;15.90;;
8466;SDS011;4270;48.148;11.648;2023-03-05T01:26:29;32.17;;;15.00;;
8466;SDS011;4270;48.148;11.648;2023-03-05T01:28:54;36.53;;;15.50;;
8466;SDS011;4270;48.148;11.648;2023-03-05T01:31:19;29.23;;;14.57;;
8466;SDS011;4270;48.148;11.648;2023-03-05T01:33:45;37.00;;;17.33;;
8466;SDS011;4270;48.148;11.648;2023-03-05T01:36:11;32.03;;;14.60;;
8466;SDS011;4270;48.148;11.648;2023-03-05T01:38:37;28.43;;;16.23;;
8466;SDS011;4270;48.148;11.648;2023-03-05T01:41:02;33.40;;;15.17;;
8466;SDS011;4270;48.148;11.648;2023-03-05T01:43:28;31.93;;;14.77;;
8466;SDS011;4270;48.148;11.648;2023-03-05T01:48:38;30.43;;;14.50;;
8466;SDS011;4270;48.148;11.648;2023-03-05T01:51:03;26.17;;;13.00;;
8466;SDS011;4270;48.148;11.648;2023-03-05T01:53:28;30.47;;;14.10;;
8466;SDS011;4270;48.148;11.648;2023-03-05T01:55:54;29.03;;;14.00;;
8466;SDS011;4270;48.148;11.648;2023-03-05T01:58:19;33.73;;;13.93;;
8466;SDS011;4270;48.148;11.648;2023-03-05T02:00:45;25.83;;;12.70;;
8466;SDS011;4270;48.148;11.648;2023-03-05T02:03:11;33.80;;;13.33;;
8466;SDS011;4270;48.148;11.648;2023-03-05T02:05:37;35.30;;;15.03;;
8466;SDS011;4270;48.148;11.648;2023-03-05T02:08:07;29.37;;;14.33;;
8466;SDS011;4270;48.148;11.648;2023-03-05T02:10:34;28.87;;;13.03;;
8466;SDS011;4270;48.148;11.648;2023-03-05T02:13:01;27.97;;;14.37;;
8466;SDS011;4270;48.148;11.648;2023-03-05T02:15:27;25.70;;;12.53;;
8466;SDS011;4270;48.148;11.648;2023-03-05T02:17:52;31.60;;;15.37;;
8466;SDS011;4270;48.148;11.648;2023-03-05T02:20:20;29.17;;;14.07;;
8466;SDS011;4270;48.148;11.648;2023-03-05T02:22:45;29.60;;;14.10;;
8466;SDS011;4270;48.148;11.648;2023-03-05T02:25:15;23.57;;;12.80;;
8466;SDS011;4270;48.148;11.648;2023-03-05T02:27:42;24.77;;;13.07;;
8466;SDS011;4270;48.148;11.648;2023-03-05T02:30:09;30.33;;;14.03;;
8466;SDS011;4270;48.148;11.648;2023-03-05T02:32:35;26.07;;;13.20;;
8466;SDS011;4270;48.148;11.648;2023-03-05T02:35:00;31.73;;;14.67;;
8466;SDS011;4270;48.148;11.648;2023-03-05T02:37:25;34.80;;;16.23;;
8466;SDS011;4270;48.148;11.648;2023-03-05T02:39:50;32.60;;;14.40;;
8466;SDS011;4270;48.148;11.648;2023-03-05T02:42:15;30.30;;;14.23;;
8466;SDS011;4270;48.148;11.648;2023-03-05T02:44:40;34.60;;;15.30;;
8466;SDS011;4270;48.148;11.648;2023-03-05T02:47:06;30.37;;;14.67;;
8466;SDS011;4270;48.148;11.648;2023-03-05T02:49:31;31.53;;;15.83;;
8466;SDS011;4270;48.148;11.648;2023-03-05T02:51:56;31.60;;;14.00;;
8466;SDS011;4270;48.148;11.648;2023-03-05T02:54:21;28.90;;;14.03;;
8466;SDS011;4270;48.148;11.648;2023-03-05T02:56:46;28.50;;;14.60;;
8466;SDS011;4270;48.148;11.648;2023-03-05T02:59:12;33.90;;;14.87;;
8466;SDS011;4270;48.148;11.648;2023-03-05T03:01:37;27.70;;;14.10;;
8466;SDS011;4270;48.148;11.648;2023-03-05T03:04:02;31.33;;;15.87;;
8466;SDS011;4270;48.148;11.648;2023-03-05T03:06:27;34.07;;;15.73;;
8466;SDS011;4270;48.148;11.648;2023-03-05T03:08:52;33.93;;;15.30;;
8466;SDS011;4270;48.148;11.648;2023-03-05T03:11:17;35.37;;;15.40;;
8466;SDS011;4270;48.148;11.648;2023-03-05T03:13:43;36.67;;;16.00;;
8466;SDS011;4270;48.148;11.648;2023-03-05T03:16:09;31.17;;;16.07;;
8466;SDS011;4270;48.148;11.648;2023-03-05T03:18:34;36.40;;;15.10;;
8466;SDS011;4270;48.148;11.648;2023-03-05T03:21:00;29.10;;;14.20;;
8466;SDS011;4270;48.148;11.648;2023-03-05T03:23:25;26.57;;;13.20;;
8466;SDS011;4270;48.148;11.648;2023-03-05T03:25:51;33.47;;;15.53;;
8466;SDS011;4270;48.148;11.648;2023-03-05T03:28:16;28.83;;;13.87;;
8466;SDS011;4270;48.148;11.648;2023-03-05T03:30:41;30.90;;;16.27;;
8466;SDS011;4270;48.148;11.648;2023-03-05T03:33:06;27.37;;;13.60;;
8466;SDS011;4270;48.148;11.648;2023-03-05T03:35:32;27.57;;;13.37;;
8466;SDS011;4270;48.148;11.648;2023-03-05T03:37:57;32.73;;;15.73;;
8466;SDS011;4270;48.148;11.648;2023-03-05T03:40:22;26.40;;;13.60;;
8466;SDS011;4270;48.148;11.648;2023-03-05T03:42:47;34.93;;;16.30;;
8466;SDS011;4270;48.148;11.648;2023-03-05T03:45:14;34.33;;;15.00;;
8466;SDS011;4270;48.148;11.648;2023-03-05T03:47:40;32.13;;;14.27;;
8466;SDS011;4270;48.148;11.648;2023-03-05T03:50:05;29.80;;;14.17;;
8466;SDS011;4270;48.148;11.648;2023-03-05T03:52:30;30.90;;;13.83;;
8466;SDS011;4270;48.148;11.648;2023-03-05T03:54:55;36.83;;;15.30;;
8466;SDS011;4270;48.148;11.648;2023-03-05T03:57:25;29.07;;;14.40;;
8466;SDS011;4270;48.148;11.648;2023-03-05T03:59:50;35.03;;;15.23;;
8466;SDS011;4270;48.148;11.648;2023-03-05T04:02:16;34.27;;;15.57;;
8466;SDS011;4270;48.148;11.648;2023-03-05T04:04:41;33.47;;;14.60;;
8466;SDS011;4270;48.148;11.648;2023-03-05T04:07:06;31.47;;;14.30;;
8466;SDS011;4270;48.148;11.648;2023-03-05T04:09:32;29.80;;;14.97;;
8466;SDS011;4270;48.148;11.648;2023-03-05T04:11:57;29.53;;;13.97;;
8466;SDS011;4270;48.148;11.648;2023-03-05T04:14:22;35.07;;;16.17;;
8466;SDS011;4270;48.148;11.648;2023-03-05T04:16:47;32.40;;;15.67;;
8466;SDS011;4270;48.148;11.648;2023-03-05T04:19:12;28.43;;;14.20;;
8466;SDS011;4270;48.148;11.648;2023-03-05T04:21:38;32.77;;;15.50;;
8466;SDS011;4270;48.148;11.648;2023-03-05T04:24:04;28.03;;;14.47;;
8466;SDS011;4270;48.148;11.648;2023-03-05T04:26:29;28.33;;;14.40;;
8466;SDS011;4270;48.148;11.648;2023-03-05T04:28:54;25.60;;;14.30;;
8466;SDS011;4270;48.148;11.648;2023-03-05T04:31:20;27.10;;;13.97;;
8466;SDS011;4270;48.148;11.648;2023-03-05T04:33:45;28.60;;;14.63;;
8466;SDS011;4270;48.148;11.648;2023-03-05T04:36:10;27.27;;;13.90;;
8466;SDS011;4270;48.148;11.648;2023-03-05T04:38:35;30.53;;;13.60;;
8466;SDS011;4270;48.148;11.648;2023-03-05T04:41:00;28.80;;;15.33;;
8466;SDS011;4270;48.148;11.648;2023-03-05T04:43:25;29.40;;;14.20;;
8466;SDS011;4270;48.148;11.648;2023-03-05T04:45:51;27.27;;;13.33;;
8466;SDS011;4270;48.148;11.648;2023-03-05T04:48:16;30.03;;;13.70;;
8466;SDS011;4270;48.148;11.648;2023-03-05T04:50:42;28.70;;;13.03;;
8466;SDS011;4270;48.148;11.648;2023-03-05T04:53:07;34.60;;;14.67;;
8466;SDS011;4270;48.148;11.648;2023-03-05T04:55:35;24.20;;;12.53;;
8466;SDS011;4270;48.148;11.648;2023-03-05T04:58:00;29.23;;;14.70;;
8466;SDS011;4270;48.148;11.648;2023-03-05T05:00:26;26.70;;;13.40;;
8466;SDS011;4270;48.148;11.648;2023-03-05T05:02:51;31.50;;;14.00;;
8466;SDS011;4270;48.148;11.648;2023-03-05T05:05:18;26.93;;;13.93;;
8466;SDS011;4270;48.148;11.648;2023-03-05T05:07:44;29.10;;;12.60;;
8466;SDS011;4270;48.148;11.648;2023-03-05T05:10:09;29.60;;;13.60;;
8466;SDS011;4270;48.148;11.648;2023-03-05T05:12:34;26.67;;;13.17;;
8466;SDS011;4270;48.148;11.648;2023-03-05T05:15:00;31.50;;;14.33;;
8466;SDS011;4270;48.148;11.648;2023-03-05T05:17:25;27.43;;;12.90;;
8466;SDS011;4270;48.148;11.648;2023-03-05T05:19:51;28.27;;;13.30;;
8466;SDS011;4270;48.148;11.648;2023-03-05T05:22:17;29.17;;;13.00;;
8466;SDS011;4270;48.148;11.648;2023-03-05T05:24:42;26.87;;;13.60;;
8466;SDS011;4270;48.148;11.648;2023-03-05T05:27:07;24.50;;;13.13;;
8466;SDS011;4270;48.148;11.648;2023-03-05T05:29:32;32.53;;;14.17;;
8466;SDS011;4270;48.148;11.648;2023-03-05T05:31:57;29.30;;;13.33;;
8466;SDS011;4270;48.148;11.648;2023-03-05T05:34:23;28.63;;;12.40;;
8466;SDS011;4270;48.148;11.648;2023-03-05T05:36:49;26.77;;;12.83;;
8466;SDS011;4270;48.148;11.648;2023-03-05T05:39:15;30.20;;;14.00;;
8466;SDS011;4270;48.148;11.648;2023-03-05T05:41:40;30.93;;;13.40;;
8466;SDS011;4270;48.148;11.648;2023-03-05T05:44:05;31.97;;;13.20;;
8466;SDS011;4270;48.148;11.648;2023-03-05T05:46:30;30.83;;;13.40;;
8466;SDS011;4270;48.148;11.648;2023-03-05T05:48:55;28.40;;;13.80;;
8466;SDS011;4270;48.148;11.648;2023-03-05T05:51:21;26.57;;;13.20;;
8466;SDS011;4270;48.148;11.648;2023-03-05T05:53:47;35.43;;;14.80;;
8466;SDS011;4270;48.148;11.648;2023-03-05T05:56:12;33.37;;;14.37;;
8466;SDS011;4270;48.148;11.648;2023-03-05T05:58:38;29.07;;;13.93;;
8466;SDS011;4270;48.148;11.648;2023-03-05T06:01:14;31.30;;;14.60;;
8466;SDS011;4270;48.148;11.648;2023-03-05T06:03:39;33.57;;;14.53;;
8466;SDS011;4270;48.148;11.648;2023-03-05T06:06:09;30.83;;;14.17;;
8466;SDS011;4270;48.148;11.648;2023-03-05T06:08:34;27.10;;;12.80;;
8466;SDS011;4270;48.148;11.648;2023-03-05T06:10:59;29.87;;;13.23;;
8466;SDS011;4270;48.148;11.648;2023-03-05T06:13:24;31.90;;;13.50;;
8466;SDS011;4270;48.148;11.648;2023-03-05T06:15:56;33.57;;;14.70;;
8466;SDS011;4270;48.148;11.648;2023-03-05T06:18:22;31.93;;;14.53;;
8466;SDS011;4270;48.148;11.648;2023-03-05T06:20:52;34.37;;;14.93;;
8466;SDS011;4270;48.148;11.648;2023-03-05T06:23:17;31.83;;;14.93;;
8466;SDS011;4270;48.148;11.648;2023-03-05T06:25:43;36.27;;;15.53;;
8466;SDS011;4270;48.148;11.648;2023-03-05T06:28:08;32.43;;;14.13;;
8466;SDS011;4270;48.148;11.648;2023-03-05T06:30:33;30.93;;;15.20;;
8466;SDS011;4270;48.148;11.648;2023-03-05T06:32:58;31.10;;;14.37;;
8466;SDS011;4270;48.148;11.648;2023-03-05T06:35:23;31.63;;;14.57;;
8466;SDS011;4270;48.148;11.648;2023-03-05T06:37:49;34.20;;;13.97;;
8466;SDS011;4270;48.148;11.648;2023-03-05T06:40:14;29.17;;;13.40;;
8466;SDS011;4270;48.148;11.648;2023-03-05T06:42:39;31.23;;;14.23;;
8466;SDS011;4270;48.148;11.648;2023-03-05T06:45:05;35.63;;;15.67;;
8466;SDS011;4270;48.148;11.648;2023-03-05T06:47:30;31.10;;;15.73;;
8466;SDS011;4270;48.148;11.648;2023-03-05T06:49:56;30.13;;;14.07;;
8466;SDS011;4270;48.148;11.648;2023-03-05T06:52:21;46.80;;;16.67;;
8466;SDS011;4270;48.148;11.648;2023-03-05T06:54:46;30.87;;;14.63;;
8466;SDS011;4270;48.148;11.648;2023-03-05T06:57:11;34.53;;;16.33;;
8466;SDS011;4270;48.148;11.648;2023-03-05T06:59:37;30.47;;;13.73;;
8466;SDS011;4270;48.148;11.648;2023-03-05T07:02:03;39.77;;;16.07;;
8466;SDS011;4270;48.148;11.648;2023-03-05T07:04:28;38.27;;;14.80;;
8466;SDS011;4270;48.148;11.648;2023-03-05T07:06:53;30.30;;;14.20;;
8466;SDS011;4270;48.148;11.648;2023-03-05T07:09:19;28.40;;;15.10;;
8466;SDS011;4270;48.148;11.648;2023-03-05T07:11:45;34.00;;;14.63;;
8466;SDS011;4270;48.148;11.648;2023-03-05T07:14:10;34.23;;;15.00;;
8466;SDS011;4270;48.148;11.648;2023-03-05T07:16:35;32.90;;;15.23;;
8466;SDS011;4270;48.148;11.648;2023-03-05T07:19:01;25.57;;;14.40;;
8466;SDS011;4270;48.148;11.648;2023-03-05T07:21:28;32.73;;;15.53;;
8466;SDS011;4270;48.148;11.648;2023-03-05T07:23:54;33.03;;;14.53;;
8466;SDS011;4270;48.148;11.648;2023-03-05T07:26:19;33.63;;;15.63;;
8466;SDS011;4270;48.148;11.648;2023-03-05T07:28:44;33.70;;;14.83;;
8466;SDS011;4270;48.148;11.648;2023-03-05T07:31:14;28.93;;;14.07;;
8466;SDS011;4270;48.148;11.648;2023-03-05T07:33:39;31.00;;;16.03;;
8466;SDS011;4270;48.148;11.648;2023-03-05T07:36:08;30.93;;;15.10;;
8466;SDS011;4270;48.148;11.648;2023-03-05T07:38:33;32.60;;;13.93;;
8466;SDS011;4270;48.148;11.648;2023-03-05T07:41:02;37.00;;;15.00;;
8466;SDS011;4270;48.148;11.648;2023-03-05T07:43:28;31.20;;;15.20;;
8466;SDS011;4270;48.148;11.648;2023-03-05T07:45:53;34.43;;;16.57;;
8466;SDS011;4270;48.148;11.648;2023-03-05T07:48:18;34.77;;;14.63;;
8466;SDS011;4270;48.148;11.648;2023-03-05T07:50:46;32.50;;;15.57;;
8466;SDS011;4270;48.148;11.648;2023-03-05T07:53:11;38.17;;;16.50;;
8466;SDS011;4270;48.148;11.648;2023-03-05T07:55:43;31.93;;;15.10;;
8466;SDS011;4270;48.148;11.648;2023-03-05T07:58:08;38.43;;;16.67;;
8466;SDS011;4270;48.148;11.648;2023-03-05T08:00:34;35.10;;;16.03;;
8466;SDS011;4270;48.148;11.648;2023-03-05T08:02:59;33.87;;;16.20;;
8466;SDS011;4270;48.148;11.648;2023-03-05T08:05:24;26.90;;;13.73;;
8466;SDS011;4270;48.148;11.648;2023-03-05T08:07:49;27.30;;;13.30;;
8466;SDS011;4270;48.148;11.648;2023-03-05T08:10:14;35.03;;;16.27;;
8466;SDS011;4270;48.148;11.648;2023-03-05T08:12:40;30.60;;;14.43;;
8466;SDS011;4270;48.148;11.648;2023-03-05T08:15:05;33.87;;;15.03;;
8466;SDS011;4270;48.148;11.648;2023-03-05T08:17:30;29.83;;;15.03;;
8466;SDS011;4270;48.148;11.648;2023-03-05T08:19:55;32.20;;;14.13;;
8466;SDS011;4270;48.148;11.648;2023-03-05T08:22:24;30.47;;;15.20;;
8466;SDS011;4270;48.148;11.648;2023-03-05T08:24:49;28.33;;;15.37;;
8466;SDS011;4270;48.148;11.648;2023-03-05T08:27:16;34.13;;;15.90;;
8466;SDS011;4270;48.148;11.648;2023-03-05T08:29:41;33.00;;;16.70;;
8466;SDS011;4270;48.148;11.648;2023-03-05T08:32:06;35.07;;;16.67;;
8466;SDS011;4270;48.148;11.648;2023-03-05T08:34:31;34.33;;;15.00;;
8466;SDS011;4270;48.148;11.648;2023-03-05T08:36:56;32.07;;;14.70;;
8466;SDS011;4270;48.148;11.648;2023-03-05T08:39:22;34.33;;;16.27;;
8466;SDS011;4270;48.148;11.648;2023-03-05T08:41:47;30.80;;;15.20;;
8466;SDS011;4270;48.148;11.648;2023-03-05T08:44:12;32.40;;;14.90;;
8466;SDS011;4270;48.148;11.648;2023-03-05T08:46:38;29.50;;;15.60;;
8466;SDS011;4270;48.148;11.648;2023-03-05T08:49:03;37.30;;;15.60;;
8466;SDS011;4270;48.148;11.648;2023-03-05T08:51:29;30.00;;;15.20;;
8466;SDS011;4270;48.148;11.648;2023-03-05T08:53:54;33.27;;;15.00;;
8466;SDS011;4270;48.148;11.648;2023-03-05T08:56:20;29.67;;;14.50;;
8466;SDS011;4270;48.148;11.648;2023-03-05T08:58:45;30.20;;;15.50;;
8466;SDS011;4270;48.148;11.648;2023-03-05T09:01:12;34.33;;;16.27;;
8466;SDS011;4270;48.148;11.648;2023-03-05T09:03:37;32.57;;;15.93;;
8466;SDS011;4270;48.148;11.648;2023-03-05T09:06:04;31.67;;;14.67;;
8466;SDS011;4270;48.148;11.648;2023-03-05T09:08:29;32.23;;;15.00;;
8466;SDS011;4270;48.148;11.648;2023-03-05T09:10:55;32.90;;;16.50;;
8466;SDS011;4270;48.148;11.648;2023-03-05T09:13:20;31.40;;;14.63;;
8466;SDS011;4270;48.148;11.648;2023-03-05T09:15:52;28.67;;;13.70;;
8466;SDS011;4270;48.148;11.648;2023-03-05T09:18:17;29.70;;;14.60;;
8466;SDS011;4270;48.148;11.648;2023-03-05T09:20:42;37.80;;;15.93;;
8466;SDS011;4270;48.148;11.648;2023-03-05T09:23:07;34.23;;;15.70;;
8466;SDS011;4270;48.148;11.648;2023-03-05T09:25:32;33.30;;;16.20;;
8466;SDS011;4270;48.148;11.648;2023-03-05T09:27:58;36.60;;;16.53;;
8466;SDS011;4270;48.148;11.648;2023-03-05T09:30:23;34.93;;;15.00;;
8466;SDS011;4270;48.148;11.648;2023-03-05T09:32:48;28.30;;;14.80;;
8466;SDS011;4270;48.148;11.648;2023-03-05T09:35:15;33.03;;;15.10;;
8466;SDS011;4270;48.148;11.648;2023-03-05T09:37:40;29.00;;;15.53;;
8466;SDS011;4270;48.148;11.648;2023-03-05T09:40:05;29.97;;;15.90;;
8466;SDS011;4270;48.148;11.648;2023-03-05T09:45:14;30.67;;;15.13;;
8466;SDS011;4270;48.148;11.648;2023-03-05T09:50:38;30.63;;;14.63;;
8466;SDS011;4270;48.148;11.648;2023-03-05T09:53:11;36.40;;;15.23;;
8466;SDS011;4270;48.148;11.648;2023-03-05T09:55:44;32.50;;;17.00;;
8466;SDS011;4270;48.148;11.648;2023-03-05T09:58:10;35.20;;;17.47;;
8466;SDS011;4270;48.148;11.648;2023-03-05T10:00:40;30.47;;;14.77;;
8466;SDS011;4270;48.148;11.648;2023-03-05T10:03:12;30.40;;;14.13;;
8466;SDS011;4270;48.148;11.648;2023-03-05T10:08:13;30.70;;;14.50;;
8466;SDS011;4270;48.148;11.648;2023-03-05T10:10:41;29.60;;;16.13;;
8466;SDS011;4270;48.148;11.648;2023-03-05T10:13:12;36.67;;;18.47;;
8466;SDS011;4270;48.148;11.648;2023-03-05T10:15:42;32.70;;;15.13;;
8466;SDS011;4270;48.148;11.648;2023-03-05T10:18:23;34.83;;;16.87;;
8466;SDS011;4270;48.148;11.648;2023-03-05T10:21:01;30.93;;;15.80;;
8466;SDS011;4270;48.148;11.648;2023-03-05T10:26:01;31.13;;;15.27;;
8466;SDS011;4270;48.148;11.648;2023-03-05T10:28:36;31.97;;;16.47;;
8466;SDS011;4270;48.148;11.648;2023-03-05T10:34:32;29.80;;;15.38;;
8466;SDS011;4270;48.148;11.648;2023-03-05T10:36:26;29.13;;;14.00;;
8466;SDS011;4270;48.148;11.648;2023-03-05T10:46:42;33.00;;;15.40;;
8466;SDS011;4270;48.148;11.648;2023-03-05T10:49:16;29.03;;;13.83;;
8466;SDS011;4270;48.148;11.648;2023-03-05T10:51:46;30.80;;;15.17;;
8466;SDS011;4270;48.148;11.648;2023-03-05T10:56:41;32.03;;;15.43;;
8466;SDS011;4270;48.148;11.648;2023-03-05T10:59:06;37.63;;;17.73;;
8466;SDS011;4270;48.148;11.648;2023-03-05T11:01:31;31.35;;;16.73;;
8466;SDS011;4270;48.148;11.648;2023-03-05T11:04:04;31.43;;;14.87;;
8466;SDS011;4270;48.148;11.648;2023-03-05T11:08:54;30.00;;;13.98;;
8466;SDS011;4270;48.148;11.648;2023-03-05T11:11:20;30.87;;;14.57;;
8466;SDS011;4270;48.148;11.648;2023-03-05T11:13:54;26.50;;;14.40;;
8466;SDS011;4270;48.148;11.648;2023-03-05T11:18:45;27.80;;;14.40;;
8466;SDS011;4270;48.148;11.648;2023-03-05T11:21:11;33.00;;;15.07;;
8466;SDS011;4270;48.148;11.648;2023-03-05T11:23:42;32.97;;;15.03;;
8466;SDS011;4270;48.148;11.648;2023-03-05T11:28:40;26.30;;;13.63;;
8466;SDS011;4270;48.148;11.648;2023-03-05T11:33:39;32.80;;;13.73;;
8466;SDS011;4270;48.148;11.648;2023-03-05T11:38:49;26.73;;;14.43;;
8466;SDS011;4270;48.148;11.648;2023-03-05T11:41:16;28.63;;;14.77;;
8466;SDS011;4270;48.148;11.648;2023-03-05T11:43:42;34.07;;;15.30;;
8466;SDS011;4270;48.148;11.648;2023-03-05T11:46:08;24.60;;;11.83;;
8466;SDS011;4270;48.148;11.648;2023-03-05T11:48:35;23.83;;;13.43;;
8466;SDS011;4270;48.148;11.648;2023-03-05T11:51:01;24.47;;;12.63;;
8466;SDS011;4270;48.148;11.648;2023-03-05T11:53:30;27.13;;;13.97;;
8466;SDS011;4270;48.148;11.648;2023-03-05T11:55:58;27.67;;;13.60;;
8466;SDS011;4270;48.148;11.648;2023-03-05T12:00:49;27.23;;;13.32;;
8466;SDS011;4270;48.148;11.648;2023-03-05T12:03:33;26.43;;;14.53;;
8466;SDS011;4270;48.148;11.648;2023-03-05T12:06:00;31.33;;;15.97;;
8466;SDS011;4270;48.148;11.648;2023-03-05T12:08:34;28.37;;;14.13;;
8466;SDS011;4270;48.148;11.648;2023-03-05T12:11:03;28.27;;;14.63;;
8466;SDS011;4270;48.148;11.648;2023-03-05T12:13:40;30.17;;;14.20;;
8466;SDS011;4270;48.148;11.648;2023-03-05T12:16:15;28.70;;;14.03;;
8466;SDS011;4270;48.148;11.648;2023-03-05T12:18:43;31.10;;;17.03;;
8466;SDS011;4270;48.148;11.648;2023-03-05T12:23:57;26.93;;;12.77;;
8466;SDS011;4270;48.148;11.648;2023-03-05T12:29:25;27.93;;;13.50;;
8466;SDS011;4270;48.148;11.648;2023-03-05T12:31:51;29.03;;;13.50;;
8466;SDS011;4270;48.148;11.648;2023-03-05T12:37:01;24.70;;;12.83;;
8466;SDS011;4270;48.148;11.648;2023-03-05T12:39:41;25.63;;;12.87;;
8466;SDS011;4270;48.148;11.648;2023-03-05T12:42:39;22.23;;;12.13;;
8466;SDS011;4270;48.148;11.648;2023-03-05T12:57:49;33.53;;;18.15;;
8466;SDS011;4270;48.148;11.648;2023-03-05T13:00:17;43.37;;;21.20;;
8466;SDS011;4270;48.148;11.648;2023-03-05T13:02:47;41.47;;;20.17;;
8466;SDS011;4270;48.148;11.648;2023-03-05T13:05:18;39.90;;;19.33;;
8466;SDS011;4270;48.148;11.648;2023-03-05T13:07:45;32.47;;;18.27;;
8466;SDS011;4270;48.148;11.648;2023-03-05T13:10:28;32.87;;;16.77;;
8466;SDS011;4270;48.148;11.648;2023-03-05T13:12:54;23.40;;;12.13;;
8466;SDS011;4270;48.148;11.648;2023-03-05T13:15:21;22.53;;;11.90;;
8466;SDS011;4270;48.148;11.648;2023-03-05T13:17:57;26.07;;;12.57;;
8466;SDS011;4270;48.148;11.648;2023-03-05T13:20:30;20.40;;;11.80;;
8466;SDS011;4270;48.148;11.648;2023-03-05T13:25:29;17.70;;;10.43;;
8466;SDS011;4270;48.148;11.648;2023-03-05T13:28:05;22.70;;;11.20;;
8466;SDS011;4270;48.148;11.648;2023-03-05T13:30:33;19.83;;;10.23;;
8466;SDS011;4270;48.148;11.648;2023-03-05T13:32:59;20.37;;;11.50;;
8466;SDS011;4270;48.148;11.648;2023-03-05T13:35:29;18.50;;;10.70;;
8466;SDS011;4270;48.148;11.648;2023-03-05T13:37:54;20.33;;;11.00;;
8466;SDS011;4270;48.148;11.648;2023-03-05T13:40:21;22.70;;;11.20;;
8466;SDS011;4270;48.148;11.648;2023-03-05T13:42:47;20.23;;;11.60;;
8466;SDS011;4270;48.148;11.648;2023-03-05T13:47:54;16.10;;;9.60;;
8466;SDS011;4270;48.148;11.648;2023-03-05T13:50:24;20.40;;;10.10;;
8466;SDS011;4270;48.148;11.648;2023-03-05T13:52:49;16.97;;;9.67;;
8466;SDS011;4270;48.148;11.648;2023-03-05T13:55:15;20.43;;;11.20;;
8466;SDS011;4270;48.148;11.648;2023-03-05T13:57:50;23.80;;;12.50;;
8466;SDS011;4270;48.148;11.648;2023-03-05T14:00:27;25.67;;;11.40;;
8466;SDS011;4270;48.148;11.648;2023-03-05T14:02:54;19.87;;;11.53;;
8466;SDS011;4270;48.148;11.648;2023-03-05T14:05:20;22.50;;;12.47;;
8466;SDS011;4270;48.148;11.648;2023-03-05T14:07:48;20.50;;;11.40;;
8466;SDS011;4270;48.148;11.648;2023-03-05T14:10:32;22.33;;;11.90;;
8466;SDS011;4270;48.148;11.648;2023-03-05T14:12:57;22.63;;;12.77;;
8466;SDS011;4270;48.148;11.648;2023-03-05T14:15:31;21.00;;;11.60;;
8466;SDS011;4270;48.148;11.648;2023-03-05T14:20:37;20.13;;;10.20;;
8466;SDS011;4270;48.148;11.648;2023-03-05T14:23:25;21.13;;;11.07;;
8466;SDS011;4270;48.148;11.648;2023-03-05T14:25:48;17.17;;;10.83;;
8466;SDS011;4270;48.148;11.648;2023-03-05T14:30:48;23.00;;;11.37;;
8466;SDS011;4270;48.148;11.648;2023-03-05T14:33:19;22.93;;;11.60;;
8466;SDS011;4270;48.148;11.648;2023-03-05T14:35:47;24.60;;;12.33;;
8466;SDS011;4270;48.148;11.648;2023-03-05T14:38:16;21.80;;;12.00;;
8466;SDS011;4270;48.148;11.648;2023-03-05T14:40:43;19.67;;;11.27;;
8466;SDS011;4270;48.148;11.648;2023-03-05T14:43:09;27.13;;;12.67;;
8466;SDS011;4270;48.148;11.648;2023-03-05T14:45:38;24.70;;;12.67;;
8466;SDS011;4270;48.148;11.648;2023-03-05T14:48:05;26.83;;;12.53;;
8466;SDS011;4270;48.148;11.648;2023-03-05T14:50:32;23.57;;;11.40;;
8466;SDS011;4270;48.148;11.648;2023-03-05T14:52:58;22.63;;;11.70;;
8466;SDS011;4270;48.148;11.648;2023-03-05T14:55:25;28.40;;;13.40;;
8466;SDS011;4270;48.148;11.648;2023-03-05T14:57:50;21.30;;;11.70;;
8466;SDS011;4270;48.148;11.648;2023-03-05T15:00:17;23.73;;;11.90;;
8466;SDS011;4270;48.148;11.648;2023-03-05T15:02:43;23.70;;;12.20;;
8466;SDS011;4270;48.148;11.648;2023-03-05T15:05:08;20.83;;;10.93;;
8466;SDS011;4270;48.148;11.648;2023-03-05T15:07:34;26.13;;;13.20;;
8466;SDS011;4270;48.148;11.648;2023-03-05T15:09:59;24.00;;;12.37;;
8466;SDS011;4270;48.148;11.648;2023-03-05T15:12:24;23.10;;;13.30;;
8466;SDS011;4270;48.148;11.648;2023-03-05T15:14:53;22.57;;;11.97;;
8466;SDS011;4270;48.148;11.648;2023-03-05T15:17:20;26.33;;;10.60;;
8466;SDS011;4270;48.148;11.648;2023-03-05T15:19:46;23.17;;;11.87;;
8466;SDS011;4270;48.148;11.648;2023-03-05T15:22:11;26.57;;;11.83;;
8466;SDS011;4270;48.148;11.648;2023-03-05T15:24:37;17.57;;;10.00;;
8466;SDS011;4270;48.148;11.648;2023-03-05T15:27:02;18.00;;;10.50;;
8466;SDS011;4270;48.148;11.648;2023-03-05T15:29:27;20.40;;;11.47;;
8466;SDS011;4270;48.148;11.648;2023-03-05T15:31:52;22.33;;;11.00;;
8466;SDS011;4270;48.148;11.648;2023-03-05T15:34:18;23.73;;;11.87;;
8466;SDS011;4270;48.148;11.648;2023-03-05T15:36:43;23.23;;;11.30;;
8466;SDS011;4270;48.148;11.648;2023-03-05T15:39:08;18.92;;;9.88;;
8466;SDS011;4270;48.148;11.648;2023-03-05T15:41:33;22.50;;;11.00;;
8466;SDS011;4270;48.148;11.648;2023-03-05T15:43:59;20.50;;;9.23;;
8466;SDS011;4270;48.148;11.648;2023-03-05T15:46:24;21.03;;;10.87;;